createdAt,value
2019-05-02T00:00:03.323Z,7.09
2019-05-02T00:01:03.320Z,7.24
2019-05-02T00:02:03.327Z,7.24
2019-05-02T00:03:04.437Z,7.27
2019-05-02T00:04:04.288Z,7.23
2019-05-02T00:05:03.333Z,7.13
2019-05-02T00:06:07.451Z,7.15
2019-05-02T00:07:04.316Z,7.15
2019-05-02T00:08:03.296Z,7.13
2019-05-02T00:09:03.915Z,7.05
2019-05-02T00:10:05.310Z,7.03
2019-05-02T00:11:03.291Z,6.99
2019-05-02T00:12:03.309Z,7.12
2019-05-02T00:13:03.278Z,7.06
2019-05-02T00:14:03.282Z,7.12
2019-05-02T00:15:03.581Z,7.07
2019-05-02T00:16:04.247Z,7.13
2019-05-02T00:17:03.263Z,7.15
2019-05-02T00:18:03.247Z,7.07
2019-05-02T00:19:03.227Z,7.09
2019-05-02T00:20:03.221Z,7.09
2019-05-02T00:21:03.301Z,7.05
2019-05-02T00:22:04.210Z,7.05
2019-05-02T00:23:03.201Z,6.97
2019-05-02T00:24:04.196Z,6.95
2019-05-02T00:25:03.179Z,6.95
2019-05-02T00:26:03.172Z,6.94
2019-05-02T00:27:03.276Z,6.89
2019-05-02T00:28:07.881Z,6.70
2019-05-02T00:29:04.167Z,6.71
2019-05-02T00:30:03.172Z,6.71
2019-05-02T00:31:07.379Z,6.73
2019-05-02T00:32:04.156Z,6.69
2019-05-02T00:33:03.140Z,6.84
2019-05-02T00:34:03.135Z,6.74
2019-05-02T00:35:03.126Z,6.64
2019-05-02T00:36:03.114Z,6.67
2019-05-02T00:37:03.125Z,6.70
2019-05-02T00:38:03.845Z,6.77
2019-05-02T00:39:03.102Z,6.67
2019-05-02T00:40:03.082Z,6.69
2019-05-02T00:41:03.687Z,6.74
2019-05-02T00:42:12.502Z,6.73
2019-05-02T00:43:05.082Z,6.81
2019-05-02T00:44:06.061Z,6.71
2019-05-02T00:45:05.090Z,6.74
2019-05-02T00:46:03.079Z,6.67
2019-05-02T00:47:06.184Z,6.70
2019-05-02T00:48:05.061Z,6.66
2019-05-02T00:49:03.067Z,6.76
2019-05-02T00:50:06.266Z,6.62
2019-05-02T00:51:05.048Z,6.62
2019-05-02T00:52:03.208Z,6.64
2019-05-02T00:53:07.129Z,6.71
2019-05-02T00:54:05.022Z,6.70
2019-05-02T00:55:03.015Z,6.66
2019-05-02T00:56:05.164Z,6.66
2019-05-02T00:57:05.010Z,6.58
2019-05-02T00:58:02.989Z,6.49
2019-05-02T00:59:07.647Z,6.56
2019-05-02T01:00:03.985Z,6.48
2019-05-02T01:01:02.967Z,6.55
2019-05-02T01:02:05.833Z,6.44
2019-05-02T01:03:03.959Z,6.55
2019-05-02T01:04:02.952Z,6.44
2019-05-02T01:05:03.444Z,6.58
2019-05-02T01:06:03.934Z,6.56
2019-05-02T01:07:02.936Z,6.49
2019-05-02T01:08:03.093Z,6.37
2019-05-02T01:09:05.804Z,6.41
2019-05-02T01:10:04.901Z,6.36
2019-05-02T01:11:02.892Z,6.36
2019-05-02T01:12:07.761Z,6.38
2019-05-02T01:13:04.891Z,6.37
2019-05-02T01:14:02.872Z,6.43
2019-05-02T01:15:03.214Z,6.43
2019-05-02T01:16:04.872Z,6.28
2019-05-02T01:17:34.914Z,6.12
2019-05-02T01:18:06.063Z,6.15
2019-05-02T01:19:03.864Z,6.14
2019-05-02T01:20:02.937Z,6.06
2019-05-02T01:21:04.153Z,6.04
2019-05-02T01:22:03.856Z,6.12
2019-05-02T01:23:02.890Z,6.25
2019-05-02T01:24:04.812Z,6.18
2019-05-02T01:25:03.464Z,6.15
2019-05-02T01:26:02.834Z,6.27
2019-05-02T01:27:04.589Z,6.12
2019-05-02T01:28:03.818Z,6.17
2019-05-02T01:29:02.797Z,6.09
2019-05-02T01:30:06.011Z,6.08
2019-05-02T01:31:03.831Z,6.06
2019-05-02T01:32:02.866Z,6.04
2019-05-02T01:33:06.610Z,5.86
2019-05-02T01:34:03.818Z,5.90
2019-05-02T01:35:02.809Z,5.93
2019-05-02T01:36:06.455Z,6.01
2019-05-02T01:37:05.498Z,6.04
2019-05-02T01:38:02.864Z,6.12
2019-05-02T01:39:02.890Z,6.17
2019-05-02T01:40:03.796Z,6.30
2019-05-02T01:41:02.750Z,6.40
2019-05-02T01:42:04.131Z,6.36
2019-05-02T01:43:03.731Z,6.19
2019-05-02T01:44:02.740Z,6.04
2019-05-02T01:45:06.654Z,5.93
2019-05-02T01:46:03.677Z,5.90
2019-05-02T01:47:02.681Z,5.91
2019-05-02T01:48:04.989Z,5.89
2019-05-02T01:49:03.783Z,5.71
2019-05-02T01:50:02.709Z,5.76
2019-05-02T01:51:04.262Z,5.85
2019-05-02T01:52:04.676Z,5.85
2019-05-02T01:53:02.679Z,5.82
2019-05-02T01:54:05.097Z,5.85
2019-05-02T01:55:04.650Z,5.78
2019-05-02T01:56:02.678Z,5.81
2019-05-02T01:57:03.898Z,5.89
2019-05-02T01:58:04.671Z,5.76
2019-05-02T01:59:02.675Z,5.71
2019-05-02T02:00:04.166Z,5.68
2019-05-02T02:01:04.646Z,5.67
2019-05-02T02:02:02.651Z,5.56
2019-05-02T02:03:04.148Z,5.48
2019-05-02T02:04:04.640Z,5.48
2019-05-02T02:05:02.580Z,5.49
2019-05-02T02:06:07.423Z,5.51
2019-05-02T02:07:04.582Z,5.46
2019-05-02T02:08:02.671Z,5.42
2019-05-02T02:09:03.398Z,5.45
2019-05-02T02:10:04.578Z,5.56
2019-05-02T02:11:02.550Z,5.67
2019-05-02T02:12:04.919Z,5.96
2019-05-02T02:13:05.273Z,6.08
2019-05-02T02:14:07.392Z,6.37
2019-05-02T02:15:03.643Z,6.28
2019-05-02T02:16:04.325Z,6.28
2019-05-02T02:17:03.511Z,6.31
2019-05-02T02:18:02.510Z,6.06
2019-05-02T02:19:03.980Z,6.21
2019-05-02T02:20:03.483Z,6.11
2019-05-02T02:21:02.481Z,6.12
2019-05-02T02:22:04.284Z,6.15
2019-05-02T02:23:03.521Z,6.09
2019-05-02T02:24:02.535Z,6.01
2019-05-02T02:25:02.922Z,6.04
2019-05-02T02:26:06.783Z,5.93
2019-05-02T02:27:03.493Z,5.91
2019-05-02T02:28:03.445Z,5.82
2019-05-02T02:29:03.179Z,5.79
2019-05-02T02:30:03.483Z,5.81
2019-05-02T02:31:04.791Z,5.72
2019-05-02T02:32:03.476Z,5.74
2019-05-02T02:33:07.587Z,5.74
2019-05-02T02:34:04.463Z,5.78
2019-05-02T02:35:03.702Z,5.67
2019-05-02T02:36:04.441Z,5.61
2019-05-02T02:37:05.689Z,5.63
2019-05-02T02:38:04.412Z,5.60
2019-05-02T02:39:06.873Z,5.60
2019-05-02T02:40:04.381Z,5.51
2019-05-02T02:41:06.502Z,5.49
2019-05-02T02:42:04.438Z,5.51
2019-05-02T02:43:12.776Z,5.36
2019-05-02T02:44:04.411Z,5.43
2019-05-02T02:45:02.954Z,5.45
2019-05-02T02:46:02.433Z,5.51
2019-05-02T02:47:02.469Z,5.53
2019-05-02T02:48:02.683Z,5.54
2019-05-02T02:49:03.434Z,5.36
2019-05-02T02:50:05.068Z,5.39
2019-05-02T02:51:02.404Z,5.35
2019-05-02T02:52:04.956Z,5.45
2019-05-02T02:53:04.452Z,5.36
2019-05-02T02:54:03.945Z,5.30
2019-05-02T02:55:03.422Z,5.27
2019-05-02T02:56:03.958Z,5.27
2019-05-02T02:57:03.983Z,5.22
2019-05-02T02:58:04.915Z,5.18
2019-05-02T02:59:03.354Z,5.24
2019-05-02T03:00:07.899Z,5.18
2019-05-02T03:01:04.441Z,5.21
2019-05-02T03:02:10.195Z,5.06
2019-05-02T03:03:04.348Z,5.13
2019-05-02T03:04:09.695Z,5.21
2019-05-02T03:05:03.331Z,5.24
2019-05-02T03:06:05.611Z,5.18
2019-05-02T03:07:04.319Z,5.22
2019-05-02T03:08:05.332Z,5.24
2019-05-02T03:09:03.303Z,5.20
2019-05-02T03:10:06.252Z,5.25
2019-05-02T03:11:04.278Z,5.28
2019-05-02T03:12:04.468Z,5.27
2019-05-02T03:13:02.265Z,5.35
2019-05-02T03:14:07.446Z,5.33
2019-05-02T03:15:04.258Z,5.28
2019-05-02T03:16:07.055Z,5.15
2019-05-02T03:19:06.729Z,5.24
2019-05-02T03:19:54.469Z,5.21
2019-05-02T03:20:53.291Z,5.27
2019-05-02T03:21:54.359Z,5.20
2019-05-02T03:22:54.247Z,5.22
2019-05-02T03:24:02.188Z,5.18
2019-05-02T03:24:55.685Z,5.22
2019-05-02T03:25:53.171Z,5.09
2019-05-02T03:26:55.177Z,5.02
2019-05-02T03:27:53.281Z,5.03
2019-05-02T03:28:58.215Z,4.97
2019-05-02T03:29:54.190Z,5.00
2019-05-02T03:30:52.234Z,5.12
2019-05-02T03:32:11.424Z,5.17
2019-05-02T03:33:06.035Z,4.99
2019-05-02T03:33:59.774Z,5.03
2019-05-02T03:34:54.807Z,5.03
2019-05-02T03:35:53.225Z,4.99
2019-05-02T03:36:52.187Z,4.97
2019-05-02T03:37:53.141Z,4.86
2019-05-02T03:38:53.170Z,4.97
2019-05-02T03:39:57.465Z,4.97
2019-05-02T03:40:53.170Z,4.94
2019-05-02T03:41:55.485Z,4.92
2019-05-02T03:42:54.110Z,4.96
2019-05-02T03:44:09.092Z,5.02
2019-05-02T03:44:56.164Z,4.96
2019-05-02T03:45:54.112Z,5.02
2019-05-02T03:46:54.269Z,4.89
2019-05-02T03:47:54.115Z,4.85
2019-05-02T03:48:59.010Z,4.85
2019-05-02T03:49:53.068Z,4.85
2019-05-02T03:50:53.054Z,4.84
2019-05-02T03:51:56.164Z,4.77
2019-05-02T03:52:54.025Z,4.70
2019-05-02T03:53:52.085Z,4.63
2019-05-02T03:54:52.759Z,4.63
2019-05-02T03:55:53.043Z,4.58
2019-05-02T03:56:53.481Z,4.58
2019-05-02T03:57:53.043Z,4.55
2019-05-02T03:58:56.477Z,4.62
2019-05-02T03:59:54.029Z,4.77
2019-05-02T04:01:00.405Z,4.66
2019-05-02T04:01:54.079Z,4.78
2019-05-02T04:02:59.507Z,4.75
2019-05-02T04:03:53.967Z,4.85
2019-05-02T04:04:54.297Z,4.86
2019-05-02T04:05:53.982Z,4.88
2019-05-02T04:06:55.045Z,4.85
2019-05-02T04:07:54.089Z,4.75
2019-05-02T04:08:58.837Z,4.73
2019-05-02T04:09:54.051Z,4.75
2019-05-02T04:10:52.766Z,4.78
2019-05-02T04:11:53.989Z,4.70
2019-05-02T04:12:53.036Z,4.73
2019-05-02T04:13:53.936Z,4.78
2019-05-02T04:14:55.565Z,4.84
2019-05-02T04:15:52.951Z,4.86
2019-05-02T04:16:55.105Z,4.72
2019-05-02T04:17:53.986Z,4.86
2019-05-02T04:18:55.743Z,4.85
2019-05-02T04:19:53.913Z,4.94
2019-05-02T04:20:52.127Z,4.97
2019-05-02T04:21:54.975Z,5.07
2019-05-02T04:22:52.888Z,4.99
2019-05-02T04:23:51.868Z,4.82
2019-05-02T04:24:56.944Z,4.91
2019-05-02T04:25:53.873Z,4.96
2019-05-02T04:26:56.022Z,5.03
2019-05-02T04:27:52.840Z,4.94
2019-05-02T04:28:52.268Z,5.00
2019-05-02T04:29:51.851Z,5.04
2019-05-02T04:30:53.921Z,5.03
2019-05-02T04:31:52.684Z,5.10
2019-05-02T04:32:55.864Z,5.17
2019-05-02T04:33:52.787Z,5.28
2019-05-02T04:34:55.257Z,5.25
2019-05-02T04:35:53.824Z,5.28
2019-05-02T04:37:00.261Z,5.30
2019-05-02T04:37:53.783Z,5.35
2019-05-02T04:38:52.573Z,5.38
2019-05-02T04:39:53.713Z,5.40
2019-05-02T04:40:53.756Z,5.24
2019-05-02T04:41:52.764Z,5.25
2019-05-02T04:43:02.012Z,5.33
2019-05-02T04:43:57.717Z,5.22
2019-05-02T04:45:14.189Z,5.38
2019-05-02T04:45:59.171Z,5.45
2019-05-02T04:46:59.733Z,5.33
2019-05-02T04:47:58.558Z,5.38
2019-05-02T04:48:53.725Z,5.48
2019-05-02T04:49:52.723Z,5.56
2019-05-02T04:50:58.326Z,5.60
2019-05-02T04:52:04.526Z,5.57
2019-05-02T04:52:54.203Z,5.60
2019-05-02T04:53:52.704Z,5.60
2019-05-02T04:54:51.710Z,5.46
2019-05-02T04:56:01.749Z,5.51
2019-05-02T04:56:55.458Z,5.60
2019-05-02T04:57:52.691Z,5.58
2019-05-02T04:58:51.653Z,5.63
2019-05-02T05:00:02.427Z,5.68
2019-05-02T05:00:58.030Z,5.67
2019-05-02T05:01:57.513Z,5.65
2019-05-02T05:02:53.597Z,5.63
2019-05-02T05:03:58.147Z,5.56
2019-05-02T05:04:53.562Z,5.43
2019-05-02T05:05:51.581Z,5.53
2019-05-02T05:06:55.886Z,5.46
2019-05-02T05:07:53.559Z,5.45
2019-05-02T05:08:51.566Z,5.46
2019-05-02T05:09:58.280Z,5.48
2019-05-02T05:10:53.569Z,5.56
2019-05-02T05:11:53.906Z,5.63
2019-05-02T05:12:53.550Z,5.61
2019-05-02T05:13:52.389Z,5.64
2019-05-02T05:14:52.539Z,5.74
2019-05-02T05:15:52.084Z,5.65
2019-05-02T05:16:55.685Z,5.54
2019-05-02T05:17:53.539Z,5.68
2019-05-02T05:18:53.210Z,5.81
2019-05-02T05:19:53.353Z,5.76
2019-05-02T05:20:53.017Z,5.78
2019-05-02T05:21:56.735Z,5.81
2019-05-02T05:22:52.499Z,5.86
2019-05-02T05:23:51.659Z,5.86
2019-05-02T05:24:52.545Z,5.82
2019-05-02T05:25:55.669Z,5.90
2019-05-02T05:26:52.452Z,5.93
2019-05-02T05:27:52.526Z,5.97
2019-05-02T05:28:53.464Z,6.01
2019-05-02T05:29:53.728Z,6.01
2019-05-02T05:30:53.433Z,5.99
2019-05-02T05:31:55.182Z,5.94
2019-05-02T05:32:53.458Z,6.09
2019-05-02T05:33:51.415Z,5.85
2019-05-02T05:34:51.440Z,5.76
2019-05-02T05:35:52.730Z,5.78
2019-05-02T05:36:52.423Z,5.71
2019-05-02T05:37:53.087Z,5.74
2019-05-02T05:38:52.429Z,5.68
2019-05-02T05:39:52.676Z,5.74
2019-05-02T05:40:52.338Z,5.71
2019-05-02T05:41:52.465Z,5.72
2019-05-02T05:42:52.340Z,5.71
2019-05-02T05:43:53.608Z,5.68
2019-05-02T05:44:52.295Z,5.79
2019-05-02T05:45:56.377Z,5.83
2019-05-02T05:46:53.367Z,5.97
2019-05-02T05:47:52.409Z,6.22
2019-05-02T05:48:53.878Z,6.30
2019-05-02T05:49:52.270Z,6.12
2019-05-02T05:50:53.277Z,6.17
2019-05-02T05:51:54.391Z,5.99
2019-05-02T05:52:53.282Z,5.85
2019-05-02T05:53:52.333Z,6.04
2019-05-02T05:54:53.222Z,5.85
2019-05-02T05:55:53.643Z,5.83
2019-05-02T05:56:53.274Z,5.94
2019-05-02T05:57:59.502Z,5.89
2019-05-02T05:58:53.278Z,5.86
2019-05-02T05:59:52.238Z,5.89
2019-05-02T06:00:55.358Z,5.91
2019-05-02T06:01:53.214Z,6.14
2019-05-02T06:02:56.248Z,6.37
2019-05-02T06:03:53.267Z,6.17
2019-05-02T06:04:55.310Z,6.01
2019-05-02T06:05:52.231Z,6.06
2019-05-02T06:06:54.034Z,6.00
2019-05-02T06:07:53.203Z,6.27
2019-05-02T06:08:54.066Z,6.41
2019-05-02T06:09:52.172Z,6.46
2019-05-02T06:10:51.183Z,6.59
2019-05-02T06:11:55.475Z,6.49
2019-05-02T06:12:51.291Z,6.41
2019-05-02T06:13:51.156Z,6.43
2019-05-02T06:14:51.187Z,6.41
2019-05-02T06:16:01.571Z,6.36
2019-05-02T06:16:53.690Z,6.51
2019-05-02T06:17:51.138Z,6.44
2019-05-02T06:18:51.111Z,6.41
2019-05-02T06:19:53.566Z,6.55
2019-05-02T06:20:52.090Z,6.67
2019-05-02T06:21:51.094Z,6.89
2019-05-02T06:22:55.053Z,6.99
2019-05-02T06:23:52.114Z,7.13
2019-05-02T06:24:52.106Z,7.06
2019-05-02T06:25:51.125Z,7.17
2019-05-02T06:26:51.803Z,7.21
2019-05-02T06:27:52.016Z,7.27
2019-05-02T06:28:51.011Z,7.50
2019-05-02T06:29:55.633Z,7.71
2019-05-02T06:30:53.004Z,7.98
2019-05-02T06:31:51.845Z,8.05
2019-05-02T06:32:54.992Z,8.22
2019-05-02T06:33:53.025Z,8.25
2019-05-02T06:34:50.993Z,8.44
2019-05-02T06:35:51.838Z,8.59
2019-05-02T06:36:53.122Z,8.40
2019-05-02T06:37:52.002Z,8.41
2019-05-02T06:38:52.342Z,8.58
2019-05-02T06:39:53.689Z,8.55
2019-05-02T06:40:51.016Z,8.63
2019-05-02T06:41:52.119Z,8.58
2019-05-02T06:42:52.983Z,8.70
2019-05-02T06:43:51.096Z,8.83
2019-05-02T06:44:54.962Z,8.66
2019-05-02T06:45:52.908Z,8.74
2019-05-02T06:46:51.855Z,8.84
2019-05-02T06:47:50.941Z,9.01
2019-05-02T06:48:52.250Z,9.13
2019-05-02T06:49:56.155Z,9.14
2019-05-02T06:50:52.696Z,9.08
2019-05-02T06:51:56.329Z,8.91
2019-05-02T06:52:52.964Z,8.86
2019-05-02T06:53:50.922Z,9.04
2019-05-02T06:54:54.070Z,9.29
2019-05-02T06:55:54.194Z,9.24
2019-05-02T06:56:51.108Z,9.31
2019-05-02T06:57:51.792Z,9.29
2019-05-02T06:58:51.961Z,9.50
2019-05-02T06:59:54.647Z,9.69
2019-05-02T07:00:57.979Z,9.83
2019-05-02T07:01:57.560Z,9.76
2019-05-02T07:02:52.891Z,9.60
2019-05-02T07:03:51.694Z,9.31
2019-05-02T07:04:54.711Z,9.26
2019-05-02T07:05:53.194Z,9.39
2019-05-02T07:06:58.902Z,9.43
2019-05-02T07:07:53.005Z,9.58
2019-05-02T07:08:51.004Z,9.76
2019-05-02T07:09:50.943Z,10.01
2019-05-02T07:10:50.819Z,10.05
2019-05-02T07:11:57.288Z,10.33
2019-05-02T07:13:09.223Z,10.59
2019-05-02T07:13:51.799Z,10.63
2019-05-02T07:14:50.798Z,10.76
2019-05-02T07:15:50.795Z,10.76
2019-05-02T07:16:54.440Z,10.85
2019-05-02T07:18:17.701Z,11.39
2019-05-02T07:18:50.678Z,11.65
2019-05-02T07:19:50.684Z,12.13
2019-05-02T07:20:50.670Z,11.94
2019-05-02T07:21:53.063Z,12.10
2019-05-02T07:22:52.663Z,12.46
2019-05-02T07:23:53.525Z,12.85
2019-05-02T07:24:51.664Z,13.15
2019-05-02T07:25:50.641Z,13.36
2019-05-02T07:26:52.086Z,13.42
2019-05-02T07:27:52.639Z,13.15
2019-05-02T07:28:50.634Z,13.69
2019-05-02T07:29:52.227Z,14.27
2019-05-02T07:30:54.644Z,13.67
2019-05-02T07:31:53.449Z,13.42
2019-05-02T07:32:50.619Z,13.92
2019-05-02T07:33:50.623Z,14.46
2019-05-02T07:34:50.614Z,14.86
2019-05-02T07:35:50.623Z,15.06
2019-05-02T07:36:50.609Z,15.31
2019-05-02T07:37:50.610Z,15.23
2019-05-02T07:38:50.592Z,15.02
2019-05-02T07:39:50.607Z,15.31
2019-05-02T07:40:52.951Z,16.08
2019-05-02T07:41:51.590Z,16.46
2019-05-02T07:42:50.588Z,16.24
2019-05-02T07:43:52.067Z,16.23
2019-05-02T07:44:52.576Z,16.38
2019-05-02T07:45:50.575Z,15.59
2019-05-02T07:46:52.074Z,15.51
2019-05-02T07:47:51.548Z,15.53
2019-05-02T07:48:54.653Z,16.17
2019-05-02T07:49:51.535Z,16.21
2019-05-02T07:50:50.923Z,15.78
2019-05-02T07:51:52.394Z,15.11
2019-05-02T07:52:52.535Z,15.54
2019-05-02T07:53:50.527Z,16.49
2019-05-02T07:54:50.526Z,16.70
2019-05-02T07:55:50.519Z,16.56
2019-05-02T07:56:53.478Z,16.24
2019-05-02T07:57:51.494Z,16.30
2019-05-02T07:58:50.483Z,16.73
2019-05-02T07:59:55.061Z,17.36
2019-05-02T08:00:51.510Z,17.63
2019-05-02T08:01:50.955Z,17.48
2019-05-02T08:02:50.490Z,16.20
2019-05-02T08:03:50.483Z,16.07
2019-05-02T08:04:50.479Z,16.24
2019-05-02T08:05:54.559Z,16.12
2019-05-02T08:06:51.488Z,16.12
2019-05-02T08:07:53.407Z,15.68
2019-05-02T08:08:51.461Z,15.68
2019-05-02T08:09:50.474Z,15.87
2019-05-02T08:10:53.851Z,15.65
2019-05-02T08:11:52.483Z,15.44
2019-05-02T08:12:50.429Z,15.60
2019-05-02T08:13:55.512Z,15.54
2019-05-02T08:14:51.419Z,15.78
2019-05-02T08:15:52.278Z,15.80
2019-05-02T08:17:04.731Z,16.17
2019-05-02T08:17:53.848Z,16.09
2019-05-02T08:18:51.388Z,15.78
2019-05-02T08:19:50.381Z,15.49
2019-05-02T08:20:51.048Z,15.17
2019-05-02T08:21:52.379Z,15.35
2019-05-02T08:22:50.645Z,15.82
2019-05-02T08:23:51.389Z,16.08
2019-05-02T08:24:51.254Z,16.86
2019-05-02T08:25:50.378Z,17.14
2019-05-02T08:26:53.356Z,17.04
2019-05-02T08:27:52.359Z,16.89
2019-05-02T08:28:51.881Z,16.50
2019-05-02T08:29:51.341Z,16.88
2019-05-02T08:30:50.336Z,17.15
2019-05-02T08:31:50.347Z,17.31
2019-05-02T08:32:50.317Z,17.51
2019-05-02T08:33:50.311Z,17.71
2019-05-02T08:34:52.056Z,17.63
2019-05-02T08:35:51.307Z,17.79
2019-05-02T08:36:50.304Z,17.99
2019-05-02T08:37:50.283Z,18.11
2019-05-02T08:38:53.679Z,18.12
2019-05-02T08:39:51.259Z,18.10
2019-05-02T08:40:51.259Z,18.39
2019-05-02T08:41:51.204Z,18.73
2019-05-02T08:42:52.274Z,18.85
2019-05-02T08:43:50.256Z,18.08
2019-05-02T08:44:51.580Z,17.06
2019-05-02T08:45:52.236Z,16.71
2019-05-02T08:46:51.342Z,16.86
2019-05-02T08:47:51.235Z,17.25
2019-05-02T08:48:50.831Z,17.82
2019-05-02T08:49:54.900Z,18.14
2019-05-02T08:50:52.202Z,18.48
2019-05-02T08:51:50.198Z,18.33
2019-05-02T08:52:50.204Z,18.51
2019-05-02T08:53:52.130Z,18.54
2019-05-02T08:54:52.181Z,18.80
2019-05-02T08:55:50.197Z,18.67
2019-05-02T08:56:53.473Z,18.11
2019-05-02T08:57:52.186Z,17.54
2019-05-02T08:58:51.159Z,17.36
2019-05-02T08:59:50.155Z,17.30
2019-05-02T09:00:50.147Z,17.01
2019-05-02T09:01:51.432Z,16.53
2019-05-02T09:02:50.155Z,17.00
2019-05-02T09:03:55.520Z,17.18
2019-05-02T09:04:58.670Z,17.22
2019-05-02T09:06:04.970Z,17.56
2019-05-02T09:06:53.202Z,17.51
2019-05-02T09:07:52.125Z,17.41
2019-05-02T09:08:51.383Z,17.55
2019-05-02T09:09:51.086Z,16.66
2019-05-02T09:10:50.075Z,16.96
2019-05-02T09:12:04.934Z,17.03
2019-05-02T09:12:52.198Z,17.00
2019-05-02T09:13:52.636Z,17.11
2019-05-02T09:14:51.966Z,16.97
2019-05-02T09:15:53.582Z,16.73
2019-05-02T09:16:52.382Z,16.79
2019-05-02T09:17:56.291Z,17.28
2019-05-02T09:18:54.186Z,17.36
2019-05-02T09:20:00.364Z,17.12
2019-05-02T09:20:56.364Z,17.38
2019-05-02T09:21:52.552Z,18.08
2019-05-02T09:22:52.134Z,18.52
2019-05-02T09:23:51.989Z,18.20
2019-05-02T09:24:52.035Z,17.75
2019-05-02T09:25:51.953Z,17.54
2019-05-02T09:26:51.918Z,17.48
2019-05-02T09:27:52.646Z,17.30
2019-05-02T09:28:51.705Z,17.58
2019-05-02T09:29:51.841Z,17.56
2019-05-02T09:30:52.300Z,17.92
2019-05-02T09:31:49.951Z,17.96
2019-05-02T09:32:52.214Z,17.75
2019-05-02T09:33:51.948Z,17.87
2019-05-02T09:34:51.830Z,17.70
2019-05-02T09:35:51.583Z,17.75
2019-05-02T09:36:49.945Z,18.21
2019-05-02T09:37:49.932Z,18.72
2019-05-02T09:38:55.985Z,18.95
2019-05-02T09:39:52.498Z,19.00
2019-05-02T09:40:54.569Z,18.52
2019-05-02T09:41:52.742Z,18.65
2019-05-02T09:42:53.456Z,18.51
2019-05-02T09:43:52.374Z,18.12
2019-05-02T09:44:55.706Z,18.08
2019-05-02T09:45:52.155Z,18.07
2019-05-02T09:46:53.065Z,17.74
2019-05-02T09:47:57.313Z,17.49
2019-05-02T09:48:52.048Z,17.43
2019-05-02T09:49:53.057Z,17.58
2019-05-02T09:50:49.860Z,17.74
2019-05-02T09:51:50.291Z,17.11
2019-05-02T09:52:52.386Z,17.00
2019-05-02T09:53:52.211Z,17.22
2019-05-02T09:54:51.793Z,17.41
2019-05-02T09:55:55.036Z,17.97
2019-05-02T09:56:52.463Z,18.11
2019-05-02T09:57:51.766Z,18.21
2019-05-02T09:58:55.058Z,18.26
2019-05-02T09:59:55.721Z,18.47
2019-05-02T10:00:52.528Z,18.54
2019-05-02T10:01:49.871Z,17.74
2019-05-02T10:02:49.797Z,17.56
2019-05-02T10:03:51.705Z,17.44
2019-05-02T10:04:49.798Z,17.37
2019-05-02T10:05:49.778Z,17.25
2019-05-02T10:06:52.280Z,17.56
2019-05-02T10:07:49.767Z,17.25
2019-05-02T10:08:51.826Z,17.22
2019-05-02T10:09:51.784Z,16.81
2019-05-02T10:10:49.761Z,16.53
2019-05-02T10:11:49.769Z,16.61
2019-05-02T10:12:49.736Z,16.46
2019-05-02T10:13:51.735Z,16.28
2019-05-02T10:14:49.717Z,16.49
2019-05-02T10:15:49.723Z,16.34
2019-05-02T10:16:49.740Z,16.23
2019-05-02T10:17:51.782Z,15.84
2019-05-02T10:18:49.708Z,16.02
2019-05-02T10:19:55.029Z,16.35
2019-05-02T10:20:52.453Z,16.58
2019-05-02T10:21:54.323Z,16.97
2019-05-02T10:22:53.022Z,17.31
2019-05-02T10:23:51.725Z,17.30
2019-05-02T10:24:52.053Z,17.52
2019-05-02T10:25:49.676Z,17.49
2019-05-02T10:26:49.652Z,17.33
2019-05-02T10:27:49.653Z,17.28
2019-05-02T10:28:52.784Z,17.04
2019-05-02T10:29:49.640Z,17.00
2019-05-02T10:30:52.594Z,17.15
2019-05-02T10:31:52.627Z,17.56
2019-05-02T10:32:52.905Z,17.71
2019-05-02T10:33:52.936Z,17.75
2019-05-02T10:34:54.319Z,17.55
2019-05-02T10:35:52.436Z,17.12
2019-05-02T10:36:54.211Z,17.00
2019-05-02T10:37:52.100Z,17.14
2019-05-02T10:38:54.800Z,16.81
2019-05-02T10:39:52.208Z,16.46
2019-05-02T10:40:54.563Z,16.53
2019-05-02T10:41:52.649Z,16.48
2019-05-02T10:42:49.568Z,16.57
2019-05-02T10:43:51.965Z,16.50
2019-05-02T10:44:52.147Z,16.66
2019-05-02T10:45:52.857Z,16.82
2019-05-02T10:46:52.291Z,16.78
2019-05-02T10:47:49.530Z,16.94
2019-05-02T10:48:49.525Z,17.12
2019-05-02T10:49:49.512Z,17.16
2019-05-02T10:50:49.536Z,17.23
2019-05-02T10:51:51.844Z,17.12
2019-05-02T10:52:49.493Z,17.30
2019-05-02T10:53:52.627Z,17.07
2019-05-02T10:54:52.839Z,16.98
2019-05-02T10:55:49.486Z,16.85
2019-05-02T10:56:49.467Z,16.75
2019-05-02T10:57:49.467Z,16.78
2019-05-02T10:58:49.451Z,16.67
2019-05-02T10:59:49.458Z,16.53
2019-05-02T11:00:49.455Z,16.45
2019-05-02T11:01:49.460Z,16.81
2019-05-02T11:02:49.443Z,16.88
2019-05-02T11:03:51.558Z,16.96
2019-05-02T11:04:49.441Z,16.73
2019-05-02T11:05:49.411Z,16.79
2019-05-02T11:06:49.418Z,16.61
2019-05-02T11:07:49.403Z,16.81
2019-05-02T11:08:49.393Z,16.61
2019-05-02T11:09:49.386Z,16.71
2019-05-02T11:10:49.408Z,16.64
2019-05-02T11:11:49.407Z,16.48
2019-05-02T11:12:49.401Z,16.57
2019-05-02T11:13:55.388Z,16.48
2019-05-02T11:14:51.693Z,16.34
2019-05-02T11:15:49.362Z,16.34
2019-05-02T11:16:49.364Z,16.34
2019-05-02T11:17:49.350Z,16.49
2019-05-02T11:18:49.355Z,16.63
2019-05-02T11:19:49.333Z,16.58
2019-05-02T11:20:49.331Z,16.31
2019-05-02T11:21:56.422Z,16.42
2019-05-02T11:22:54.393Z,16.49
2019-05-02T11:23:52.440Z,16.66
2019-05-02T11:24:49.289Z,16.88
2019-05-02T11:25:49.290Z,16.88
2019-05-02T11:26:49.291Z,17.00
2019-05-02T11:27:49.277Z,17.18
2019-05-02T11:28:49.262Z,16.98
2019-05-02T11:29:49.266Z,16.98
2019-05-02T11:30:49.271Z,16.82
2019-05-02T11:31:49.295Z,16.71
2019-05-02T11:32:49.259Z,16.78
2019-05-02T11:33:49.254Z,16.66
2019-05-02T11:34:49.259Z,16.61
2019-05-02T11:35:51.116Z,16.94
2019-05-02T11:36:49.280Z,16.81
2019-05-02T11:37:49.235Z,16.86
2019-05-02T11:38:54.819Z,16.81
2019-05-02T11:39:57.776Z,16.85
2019-05-02T11:40:52.061Z,16.73
2019-05-02T11:41:49.241Z,16.82
2019-05-02T11:42:49.230Z,16.81
2019-05-02T11:43:49.233Z,16.82
2019-05-02T11:44:49.213Z,16.81
2019-05-02T11:45:49.228Z,16.63
2019-05-02T11:46:49.218Z,16.81
2019-05-02T11:47:49.225Z,17.14
2019-05-02T11:48:56.433Z,17.21
2019-05-02T11:49:53.990Z,17.58
2019-05-02T11:50:52.150Z,17.63
2019-05-02T11:51:52.595Z,17.56
2019-05-02T11:52:52.331Z,17.38
2019-05-02T11:53:49.166Z,17.43
2019-05-02T11:54:49.170Z,17.48
2019-05-02T11:55:49.143Z,17.41
2019-05-02T11:56:50.501Z,17.56
2019-05-02T11:57:49.152Z,17.89
2019-05-02T11:58:50.297Z,18.11
2019-05-02T11:59:51.953Z,18.02
2019-05-02T12:00:49.706Z,17.92
2019-05-02T12:01:57.624Z,17.87
2019-05-02T12:02:56.254Z,17.81
2019-05-02T12:03:52.224Z,18.02
2019-05-02T12:04:54.305Z,18.12
2019-05-02T12:05:52.438Z,18.36
2019-05-02T12:06:49.914Z,18.29
2019-05-02T12:07:52.569Z,18.14
2019-05-02T12:08:49.532Z,17.93
2019-05-02T12:09:55.521Z,17.54
2019-05-02T12:10:51.950Z,17.25
2019-05-02T12:11:55.019Z,16.96
2019-05-02T12:12:52.677Z,16.75
2019-05-02T12:13:52.682Z,16.82
2019-05-02T12:14:52.735Z,16.88
2019-05-02T12:15:49.044Z,17.12
2019-05-02T12:16:49.052Z,17.18
2019-05-02T12:17:49.053Z,17.28
2019-05-02T12:18:49.040Z,17.28
2019-05-02T12:19:49.029Z,17.08
2019-05-02T12:20:49.028Z,17.08
2019-05-02T12:21:49.034Z,17.15
2019-05-02T12:22:49.035Z,17.28
2019-05-02T12:23:49.012Z,17.28
2019-05-02T12:24:48.997Z,17.44
2019-05-02T12:25:48.998Z,17.33
2019-05-02T12:26:48.981Z,17.14
2019-05-02T12:27:48.986Z,16.94
2019-05-02T12:28:48.967Z,17.07
2019-05-02T12:29:50.169Z,17.30
2019-05-02T12:30:51.876Z,17.22
2019-05-02T12:31:52.664Z,17.12
2019-05-02T12:32:52.972Z,17.11
2019-05-02T12:33:48.935Z,17.00
2019-05-02T12:34:48.933Z,16.94
2019-05-02T12:35:48.916Z,16.93
2019-05-02T12:36:48.913Z,17.01
2019-05-02T12:37:52.347Z,17.26
2019-05-02T12:38:52.657Z,17.30
2019-05-02T12:39:48.892Z,17.37
2019-05-02T12:40:48.877Z,17.54
2019-05-02T12:41:49.239Z,17.44
2019-05-02T12:42:48.865Z,17.38
2019-05-02T12:43:48.866Z,17.37
2019-05-02T12:44:48.849Z,17.51
2019-05-02T12:45:48.842Z,17.72
2019-05-02T12:46:48.832Z,17.64
2019-05-02T12:47:48.828Z,17.56
2019-05-02T12:48:48.830Z,17.66
2019-05-02T12:49:48.813Z,17.95
2019-05-02T12:50:48.805Z,18.03
2019-05-02T12:51:48.791Z,18.15
2019-05-02T12:52:48.788Z,18.20
2019-05-02T12:53:48.799Z,18.21
2019-05-02T12:54:48.770Z,17.90
2019-05-02T12:55:49.762Z,17.90
2019-05-02T12:56:48.763Z,18.00
2019-05-02T12:57:48.757Z,18.14
2019-05-02T12:58:48.762Z,17.93
2019-05-02T12:59:48.743Z,18.14
2019-05-02T13:00:48.741Z,17.96
2019-05-02T13:01:48.726Z,18.08
2019-05-02T13:02:48.736Z,18.12
2019-05-02T13:03:48.722Z,18.26
2019-05-02T13:04:48.701Z,18.18
2019-05-02T13:05:48.697Z,17.93
2019-05-02T13:06:48.685Z,17.66
2019-05-02T13:07:51.402Z,17.41